Time;durP1;ratioP1;P1;durP2;ratioP2;P2;SDS_P1;SDS_P2;PMS_P1;PMS_P2;Temp;Humidity;BMP_temperature;BMP_pressure;BME280_temperature;BME280_humidity;BME280_pressure;Samples;Min_cycle;Max_cycle;Signal;HPM_P1;HPM_P2
2023/01/06 00:00:37;;;;;;;21.05;8.40;;;8.30;99.90;;;6.75;100.00;100996.91;5008422;28;20034;-76
2023/01/06 00:03:03;;;;;;;23.00;8.25;;;8.30;99.90;;;6.72;100.00;100983.72;5010996;28;20045;-77
2023/01/06 00:05:30;;;;;;;25.27;8.10;;;8.30;99.90;;;6.71;100.00;100990.19;5006944;28;20031;-76
2023/01/06 00:07:56;;;;;;;22.27;8.55;;;8.30;99.90;;;6.76;100.00;100984.19;5008603;28;20034;-75
2023/01/06 00:10:22;;;;;;;26.73;7.97;;;8.30;99.90;;;6.74;100.00;100989.81;5000922;28;20034;-76
2023/01/06 00:12:49;;;;;;;21.73;7.63;;;8.30;99.90;;;6.74;100.00;100978.09;4999870;28;20504;-78
2023/01/06 00:15:16;;;;;;;22.92;8.93;;;8.30;99.90;;;6.73;100.00;100982.69;5005304;28;20038;-76
2023/01/06 00:17:43;;;;;;;24.77;8.20;;;8.30;99.90;;;6.73;100.00;100980.00;5008832;28;20062;-76
2023/01/06 00:20:10;;;;;;;28.27;8.02;;;8.30;99.90;;;6.74;100.00;100980.81;5010908;28;20044;-77
2023/01/06 00:22:39;;;;;;;20.38;7.40;;;8.30;99.90;;;6.71;100.00;100982.03;4999472;28;20485;-76
2023/01/06 00:25:05;;;;;;;20.58;7.78;;;8.30;99.90;;;6.67;100.00;100969.88;5005800;28;20033;-76
2023/01/06 00:27:31;;;;;;;22.92;8.75;;;8.30;99.90;;;6.68;100.00;100973.41;5005925;28;20034;-76
2023/01/06 00:29:57;;;;;;;23.10;7.20;;;8.20;99.90;;;6.71;100.00;100968.50;5000936;28;20027;-77
2023/01/06 00:32:23;;;;;;;31.35;8.20;;;8.20;99.90;;;6.68;100.00;100968.84;5015109;28;20065;-77
2023/01/06 00:34:49;;;;;;;22.73;8.07;;;8.20;99.90;;;6.68;100.00;100973.41;4994450;28;20060;-77
2023/01/06 00:37:15;;;;;;;23.35;7.57;;;8.20;99.90;;;6.68;100.00;100974.28;5009119;28;20038;-77
2023/01/06 00:39:40;;;;;;;21.77;7.80;;;8.30;99.90;;;6.66;100.00;100964.63;4999915;28;20038;-77
2023/01/06 00:42:06;;;;;;;23.73;7.75;;;8.20;99.90;;;6.65;100.00;100955.66;4996109;28;20053;-77
2023/01/06 00:44:38;;;;;;;21.48;7.72;;;8.20;99.90;;;6.66;100.00;100957.34;5004703;28;20473;-78
2023/01/06 00:47:08;;;;;;;23.30;7.97;;;8.20;99.90;;;6.62;100.00;100950.59;5004997;28;20056;-78
2023/01/06 00:49:34;;;;;;;22.38;7.88;;;8.20;99.90;;;6.60;100.00;100939.09;5010490;28;20039;-78
2023/01/06 00:52:00;;;;;;;25.48;8.50;;;8.20;99.90;;;6.59;100.00;100948.25;5004872;28;20045;-76
2023/01/06 00:54:26;;;;;;;25.98;8.40;;;8.20;99.90;;;6.61;100.00;100951.63;5009421;28;20035;-76
2023/01/06 00:56:53;;;;;;;20.08;8.23;;;8.20;99.90;;;6.59;100.00;100943.69;4995450;28;20040;-76
2023/01/06 00:59:25;;;;;;;23.50;8.20;;;8.20;99.90;;;6.59;100.00;100951.81;5006281;28;20042;-76
2023/01/06 01:01:55;;;;;;;23.35;9.02;;;8.20;99.90;;;6.66;100.00;100943.78;5009855;28;20474;-76
2023/01/06 01:04:23;;;;;;;23.33;9.65;;;8.20;99.90;;;6.65;100.00;100950.25;5013484;28;20045;-76
2023/01/06 01:06:50;;;;;;;22.08;8.95;;;8.20;99.90;;;6.67;100.00;100941.91;5002695;28;20513;-77
2023/01/06 01:09:29;;;;;;;21.85;9.02;;;8.20;99.90;;;6.71;100.00;100935.94;5006449;28;20181;-77
2023/01/06 01:12:11;;;;;;;27.00;10.38;;;8.20;99.90;;;6.74;100.00;100946.41;5008749;28;20110;-76
2023/01/06 01:14:46;;;;;;;22.33;8.88;;;8.30;99.90;;;6.76;100.00;100946.22;5008822;28;20125;-77
2023/01/06 01:17:18;;;;;;;20.58;9.48;;;8.30;99.90;;;6.75;100.00;100942.69;4999557;28;20026;-77
2023/01/06 01:19:45;;;;;;;25.20;9.63;;;8.30;99.90;;;6.80;100.00;100946.72;5003358;28;20033;-77
2023/01/06 01:22:11;;;;;;;19.83;8.50;;;8.40;99.90;;;6.81;100.00;100951.97;5009940;28;20038;-77
2023/01/06 01:24:38;;;;;;;21.13;8.70;;;8.40;99.90;;;6.84;100.00;100956.16;4999367;28;20038;-76
2023/01/06 01:27:05;;;;;;;19.85;8.68;;;8.40;99.90;;;6.86;100.00;100948.66;5007427;28;20034;-77
2023/01/06 01:29:31;;;;;;;22.08;9.95;;;8.40;99.90;;;6.87;100.00;100948.50;5010590;28;20053;-77
2023/01/06 01:31:57;;;;;;;24.77;9.52;;;8.40;99.90;;;6.87;100.00;100934.94;4997756;28;20482;-77
2023/01/06 01:34:23;;;;;;;24.02;8.77;;;8.40;99.90;;;6.94;100.00;100928.75;5002831;28;20409;-76
2023/01/06 01:36:51;;;;;;;17.50;8.77;;;8.50;99.90;;;6.91;100.00;100933.53;5004977;28;20301;-76
2023/01/06 01:39:21;;;;;;;23.77;8.93;;;8.50;99.90;;;6.89;100.00;100921.19;5005360;28;20038;-77
2023/01/06 01:41:48;;;;;;;18.27;8.30;;;8.40;99.90;;;6.90;100.00;100921.00;5009682;28;20030;-77
2023/01/06 01:44:53;;;;;;;21.50;8.85;;;8.50;99.90;;;6.93;100.00;100922.50;5006697;28;20054;-76
2023/01/06 01:47:33;;;;;;;19.58;8.60;;;8.50;99.90;;;6.94;100.00;100918.78;5009650;28;20060;-76
2023/01/06 01:50:11;;;;;;;19.40;8.50;;;8.50;99.90;;;6.97;100.00;100912.13;5006485;28;20040;-76
2023/01/06 01:52:38;;;;;;;22.13;8.23;;;8.50;99.90;;;6.95;100.00;100909.59;5008438;28;20034;-77
2023/01/06 01:55:06;;;;;;;21.15;8.85;;;8.50;99.90;;;6.95;100.00;100915.03;5008335;28;20393;-77
2023/01/06 01:57:37;;;;;;;;;;;8.50;99.90;;;6.91;100.00;100903.69;4997182;28;20084;-76
2023/01/06 02:00:07;;;;;;;20.13;8.30;;;8.50;99.90;;;6.95;100.00;100904.19;5003585;28;19922;-77
2023/01/06 02:02:40;;;;;;;19.55;8.65;;;8.50;99.90;;;6.97;100.00;100895.84;5000545;28;20065;-77
2023/01/06 02:05:09;;;;;;;20.38;9.40;;;8.50;99.90;;;7.01;100.00;100900.72;5006239;28;20056;-77
2023/01/06 02:07:36;;;;;;;18.08;9.25;;;8.50;99.90;;;6.99;100.00;100891.06;4990716;28;20035;-77
2023/01/06 02:10:21;;;;;;;20.85;9.40;;;8.50;99.90;;;7.00;100.00;100900.88;5000112;28;20034;-77
2023/01/06 02:12:53;;;;;;;24.30;8.93;;;8.50;99.90;;;6.99;100.00;100889.22;5007508;28;20034;-77
2023/01/06 02:15:29;;;;;;;19.30;8.65;;;8.50;99.90;;;6.98;100.00;100892.94;4995598;28;20377;-77
2023/01/06 02:18:33;;;;;;;21.13;8.95;;;8.50;99.90;;;6.97;100.00;100887.69;4990659;28;20041;-77
2023/01/06 02:21:40;;;;;;;17.92;8.18;;;8.50;99.90;;;7.00;100.00;100888.19;5003493;28;20173;-76
2023/01/06 02:24:55;;;;;;;15.68;7.75;;;8.50;99.90;;;7.00;100.00;100884.63;4978352;28;20402;-76
2023/01/06 02:28:12;;;;;;;15.57;8.25;;;8.50;99.90;;;6.98;100.00;100871.25;4996219;28;20073;-76
2023/01/06 02:31:22;;;;;;;21.55;8.77;;;8.50;99.90;;;7.04;100.00;100877.81;4996859;28;20076;-77
2023/01/06 02:34:03;;;;;;;17.20;6.97;;;8.50;99.90;;;7.03;100.00;100885.09;5011570;28;20056;-77
2023/01/06 02:36:51;;;;;;;18.95;8.93;;;8.60;99.90;;;7.03;100.00;100868.81;5000208;28;20044;-76
2023/01/06 02:39:44;;;;;;;20.53;8.00;;;8.60;99.90;;;7.02;100.00;100877.97;5011081;28;20137;-77
2023/01/06 02:42:33;;;;;;;21.15;8.40;;;8.60;99.90;;;7.05;100.00;100874.88;5009062;28;20288;-76
2023/01/06 02:45:21;;;;;;;14.45;7.25;;;8.60;99.90;;;7.08;100.00;100872.81;4996652;28;20038;-76
2023/01/06 02:48:11;;;;;;;18.35;7.90;;;8.60;99.90;;;7.12;100.00;100876.84;4978139;28;20457;-76
2023/01/06 02:50:49;;;;;;;12.90;7.68;;;8.60;99.90;;;7.09;100.00;100867.22;5000889;28;20058;-76
2023/01/06 02:53:28;;;;;;;18.75;7.70;;;8.60;99.90;;;7.14;100.00;100863.94;5011228;28;20066;-77
2023/01/06 02:55:56;;;;;;;16.00;7.40;;;8.70;99.90;;;7.20;100.00;100857.78;4996118;28;20512;-77
2023/01/06 02:59:26;;;;;;;13.95;7.40;;;8.70;99.90;;;7.26;100.00;100856.16;4993757;28;20741;-76
2023/01/06 03:01:53;;;;;;;15.35;6.55;;;8.70;99.90;;;7.28;100.00;100852.22;4980033;28;20046;-77
2023/01/06 03:04:29;;;;;;;14.65;6.60;;;8.80;99.90;;;7.27;100.00;100847.81;5009780;28;20442;-76
2023/01/06 03:07:01;;;;;;;13.43;6.63;;;8.80;99.90;;;7.31;100.00;100843.69;5010617;28;20069;-77
2023/01/06 03:09:33;;;;;;;12.95;6.18;;;8.80;99.90;;;7.33;100.00;100841.63;5015914;28;20037;-76
2023/01/06 03:12:07;;;;;;;17.65;6.00;;;8.80;99.90;;;7.32;100.00;100834.53;4995505;28;20030;-76
2023/01/06 03:14:43;;;;;;;12.82;6.07;;;8.90;99.90;;;7.30;100.00;100825.72;4995966;28;20529;-77
2023/01/06 03:17:09;;;;;;;13.35;5.72;;;8.90;99.90;;;7.36;100.00;100831.44;5010867;28;20172;-76
2023/01/06 03:19:35;;;;;;;10.27;5.60;;;8.90;99.90;;;7.31;100.00;100832.00;4995543;28;20438;-76
2023/01/06 03:22:06;;;;;;;10.38;5.18;;;8.90;99.90;;;7.41;100.00;100827.09;4995698;28;20034;-76
2023/01/06 03:24:36;;;;;;;11.48;5.20;;;8.90;99.90;;;7.42;100.00;100826.06;4995732;28;20046;-76
2023/01/06 03:27:04;;;;;;;13.60;6.55;;;8.90;99.90;;;7.50;100.00;100835.97;4995525;28;20034;-77
2023/01/06 03:29:31;;;;;;;11.60;5.32;;;9.00;99.90;;;7.49;100.00;100834.31;5009977;28;20390;-76
2023/01/06 03:32:41;;;;;;;10.25;5.43;;;9.00;99.90;;;7.52;100.00;100831.19;5009948;28;20457;-76
2023/01/06 03:35:27;;;;;;;10.07;5.00;;;9.00;99.90;;;7.48;100.00;100840.78;4992819;28;20034;-76
2023/01/06 03:38:04;;;;;;;10.13;5.28;;;9.00;99.90;;;7.52;100.00;100839.34;5014713;28;20070;-76
2023/01/06 03:40:39;;;;;;;11.17;5.30;;;9.00;99.90;;;7.52;100.00;100835.78;5010283;28;20034;-76
2023/01/06 03:43:33;;;;;;;10.25;5.20;;;9.10;99.90;;;7.58;100.00;100830.44;4994429;28;20065;-77
2023/01/06 03:46:22;;;;;;;12.85;5.28;;;9.10;99.90;;;7.49;100.00;100820.72;5016538;28;20050;-76
2023/01/06 03:49:06;;;;;;;10.82;5.05;;;9.10;99.90;;;7.57;100.00;100823.31;5008813;28;20074;-76
2023/01/06 03:52:10;;;;;;;11.95;5.05;;;9.10;99.90;;;7.57;100.00;100817.88;5013534;28;20034;-75
2023/01/06 03:54:51;;;;;;;8.32;4.50;;;9.10;99.90;;;7.60;100.00;100822.94;4994974;28;20041;-75
2023/01/06 03:57:35;;;;;;;8.02;4.70;;;9.10;99.90;;;7.59;100.00;100826.69;4995399;28;20110;-76
2023/01/06 04:00:34;;;;;;;8.93;4.15;;;9.10;99.90;;;7.57;100.00;100811.63;4992049;28;20081;-75
2023/01/06 04:03:12;;;;;;;9.75;4.05;;;9.20;99.90;;;7.65;100.00;100821.50;4998146;28;20028;-75
2023/01/06 04:05:38;;;;;;;8.38;3.95;;;9.20;99.90;;;7.67;100.00;100817.56;5009517;28;20072;-76
2023/01/06 04:08:04;;;;;;;7.53;3.83;;;9.20;99.90;;;7.73;100.00;100810.53;4992434;28;20085;-76
2023/01/06 04:10:31;;;;;;;6.93;4.05;;;9.30;99.90;;;7.78;100.00;100810.78;5009559;28;20145;-78
2023/01/06 04:12:58;;;;;;;6.40;4.20;;;9.30;99.90;;;7.83;100.00;100824.63;4996206;28;20030;-76
2023/01/06 04:15:30;;;;;;;8.77;4.10;;;9.40;99.90;;;7.85;100.00;100816.28;5012266;28;20057;-76
2023/01/06 04:17:57;;;;;;;6.95;3.90;;;9.40;99.90;;;7.87;100.00;100820.47;4994655;28;20063;-76
2023/01/06 04:20:28;;;;;;;6.72;3.80;;;9.40;99.90;;;7.83;100.00;100808.31;4991738;28;20034;-76
2023/01/06 04:23:00;;;;;;;7.28;4.07;;;9.40;99.90;;;7.88;100.00;100795.00;4993205;28;20066;-76
2023/01/06 04:25:31;;;;;;;6.90;3.72;;;9.40;99.90;;;7.86;100.00;100799.78;5009240;28;20508;-75
2023/01/06 04:28:04;;;;;;;7.30;3.78;;;9.40;99.90;;;7.84;100.00;100793.69;4994685;28;20053;-76
2023/01/06 04:30:30;;;;;;;9.23;4.18;;;9.40;99.90;;;7.86;100.00;100797.06;5009136;28;20030;-76
2023/01/06 04:32:55;;;;;;;8.70;3.95;;;9.40;99.90;;;7.81;100.00;100794.09;5008983;28;20030;-76
2023/01/06 04:35:21;;;;;;;7.85;4.47;;;9.40;99.90;;;7.83;100.00;100796.63;4994131;28;20038;-75
2023/01/06 04:37:47;;;;;;;10.05;4.22;;;9.40;99.90;;;7.89;100.00;100802.09;5008928;28;20030;-76
2023/01/06 04:40:13;;;;;;;8.05;4.60;;;9.40;99.90;;;7.84;100.00;100788.28;4998545;28;20050;-76
2023/01/06 04:45:23;;;;;;;6.25;3.85;;;9.40;99.90;;;7.83;100.00;100794.75;4994995;28;20093;-76
2023/01/06 04:47:48;;;;;;;7.53;4.03;;;9.40;99.90;;;7.81;100.00;100787.81;4993614;28;20065;-76
2023/01/06 04:50:14;;;;;;;7.50;3.83;;;9.40;99.90;;;7.78;100.00;100775.47;5000883;28;20042;-76
2023/01/06 04:52:40;;;;;;;9.00;4.68;;;9.40;99.90;;;7.85;100.00;100775.53;4994042;28;20038;-75
2023/01/06 04:55:06;;;;;;;11.35;4.15;;;9.40;99.90;;;7.82;100.00;100770.47;5007285;28;20441;-76
2023/01/06 04:57:32;;;;;;;7.13;4.03;;;9.40;99.90;;;7.83;100.00;100778.44;4994020;28;20034;-75
2023/01/06 04:59:57;;;;;;;6.90;3.38;;;9.40;99.90;;;7.83;100.00;100766.75;5009594;28;20092;-76
2023/01/06 05:02:23;;;;;;;6.47;3.50;;;9.40;99.90;;;7.86;100.00;100786.19;4997967;28;20041;-75
2023/01/06 05:04:49;;;;;;;8.95;4.03;;;9.40;99.90;;;7.90;100.00;100782.03;4994064;28;20053;-75
2023/01/06 05:07:15;;;;;;;6.90;3.72;;;9.40;99.90;;;8.02;100.00;100779.63;4993340;28;20056;-75
2023/01/06 05:09:40;;;;;;;8.80;4.00;;;9.50;99.90;;;8.04;100.00;100783.00;4994135;28;20096;-76
2023/01/06 05:12:07;;;;;;;6.70;3.08;;;9.50;99.90;;;8.03;100.00;100769.63;4993609;28;20046;-75
2023/01/06 05:14:32;;;;;;;7.63;3.00;;;9.60;99.90;;;8.07;100.00;100769.00;5006408;28;20042;-75
2023/01/06 05:16:58;;;;;;;7.32;3.33;;;9.60;99.90;;;8.07;100.00;100765.47;4993412;28;20038;-75
2023/01/06 05:19:24;;;;;;;5.97;3.10;;;9.60;99.90;;;8.06;100.00;100774.66;4993319;28;20220;-75
2023/01/06 05:21:50;;;;;;;5.65;2.95;;;9.60;99.90;;;8.04;100.00;100765.88;5005172;28;20381;-75
2023/01/06 05:24:15;;;;;;;8.50;3.65;;;9.60;99.90;;;8.05;100.00;100764.84;4996130;28;20046;-76
2023/01/06 05:26:41;;;;;;;5.72;2.75;;;9.60;99.90;;;8.09;100.00;100760.69;4997628;28;20037;-76
2023/01/06 05:29:08;;;;;;;5.88;2.50;;;9.60;99.90;;;8.08;100.00;100759.00;5014862;28;20056;-76
2023/01/06 05:31:33;;;;;;;5.72;2.78;;;9.60;99.90;;;8.12;100.00;100762.16;4993362;28;20057;-75
2023/01/06 05:33:59;;;;;;;5.10;2.45;;;9.60;99.90;;;8.14;100.00;100758.19;4993282;28;20474;-76
2023/01/06 05:36:25;;;;;;;8.60;2.55;;;9.70;99.90;;;8.09;100.00;100763.41;5013588;28;20045;-76
2023/01/06 05:38:53;;;;;;;4.55;2.28;;;9.70;99.90;;;8.04;100.00;100758.53;4992986;28;20038;-76
2023/01/06 05:41:20;;;;;;;4.95;2.42;;;9.60;99.90;;;8.09;100.00;100760.69;5010275;28;20104;-76
2023/01/06 05:43:45;;;;;;;6.93;2.28;;;9.60;99.90;;;8.05;100.00;100757.50;4996695;28;20054;-76
2023/01/06 05:46:11;;;;;;;4.80;2.20;;;9.60;99.90;;;8.02;100.00;100757.06;4999860;28;20102;-76
2023/01/06 05:48:38;;;;;;;4.80;1.83;;;9.60;99.90;;;8.06;100.00;100750.22;4993533;28;20059;-76
2023/01/06 05:51:07;;;;;;;5.90;1.95;;;9.60;99.90;;;8.12;100.00;100751.31;4999954;28;20045;-77
2023/01/06 05:53:36;;;;;;;3.55;1.85;;;9.60;99.90;;;8.09;100.00;100747.09;4993399;28;20041;-77
2023/01/06 05:56:08;;;;;;;6.40;2.10;;;9.60;99.90;;;8.06;100.00;100763.78;4998309;28;20034;-76
2023/01/06 05:58:35;;;;;;;6.00;2.70;;;9.60;99.90;;;8.04;100.00;100738.69;5008260;28;20073;-76
2023/01/06 06:01:03;;;;;;;8.03;2.60;;;9.60;99.90;;;8.11;100.00;100750.44;4996708;28;20042;-76
2023/01/06 06:03:30;;;;;;;8.30;2.30;;;9.60;99.90;;;8.11;100.00;100750.44;4996936;28;20041;-76
2023/01/06 06:06:02;;;;;;;3.35;2.35;;;9.60;99.90;;;8.13;100.00;100748.38;5001019;28;20125;-77
2023/01/06 06:08:28;;;;;;;5.50;1.40;;;9.60;99.90;;;8.11;100.00;100736.03;4997002;28;20059;-75
2023/01/06 06:10:54;;;;;;;7.88;2.63;;;9.60;99.90;;;8.18;100.00;100740.44;4995489;28;20114;-76
2023/01/06 06:13:20;;;;;;;6.00;1.55;;;9.70;99.90;;;8.19;100.00;100736.69;4996985;28;20034;-77
2023/01/06 06:15:45;;;;;;;7.18;2.05;;;9.70;99.90;;;8.19;100.00;100725.81;4995695;28;20030;-75
2023/01/06 06:18:11;;;;;;;4.95;1.40;;;9.80;99.90;;;8.23;100.00;100731.72;4997184;28;20081;-77
2023/01/06 06:20:37;;;;;;;4.47;1.70;;;9.80;99.90;;;8.21;100.00;100734.63;4996171;28;20045;-76
2023/01/06 06:23:02;;;;;;;7.60;1.75;;;9.70;99.90;;;8.24;100.00;100735.28;4996367;28;20027;-76
2023/01/06 06:25:28;;;;;;;4.47;1.70;;;9.80;99.90;;;8.21;100.00;100731.06;4995673;28;20041;-76
2023/01/06 06:27:58;;;;;;;1.95;0.88;;;9.70;99.90;;;8.18;100.00;100726.03;4995649;28;20034;-76
2023/01/06 06:30:24;;;;;;;5.38;1.15;;;9.70;99.90;;;8.16;100.00;100728.13;4997291;28;20044;-75
2023/01/06 06:32:50;;;;;;;3.65;1.10;;;9.70;99.90;;;8.12;100.00;100730.38;4993881;28;20058;-75
2023/01/06 06:35:16;;;;;;;3.53;1.17;;;9.60;99.90;;;8.17;100.00;100733.34;4996620;28;20054;-75
2023/01/06 06:37:42;;;;;;;4.60;1.50;;;9.60;99.90;;;8.12;100.00;100733.09;4995507;28;20045;-76
2023/01/06 06:40:08;;;;;;;4.38;1.63;;;9.70;99.90;;;8.16;100.00;100733.56;4996220;28;20033;-75
2023/01/06 06:42:34;;;;;;;3.92;1.10;;;9.70;99.90;;;8.15;100.00;100716.41;4995971;28;20060;-75
2023/01/06 06:44:59;;;;;;;4.10;1.60;;;9.70;99.90;;;8.17;100.00;100717.03;5002156;28;20790;-75
2023/01/06 06:47:25;;;;;;;9.27;2.03;;;9.70;99.90;;;8.21;100.00;100723.75;4996649;28;20034;-74
2023/01/06 06:49:51;;;;;;;7.30;1.50;;;9.70;99.90;;;8.18;100.00;100717.88;4995951;28;20043;-74
2023/01/06 06:52:16;;;;;;;7.68;2.15;;;9.70;99.90;;;8.19;100.00;100712.22;4995704;28;20374;-74
2023/01/06 06:54:42;;;;;;;6.50;1.33;;;9.70;99.90;;;8.21;100.00;100712.88;5010301;28;20034;-74
2023/01/06 06:57:08;;;;;;;2.75;1.00;;;9.70;99.90;;;8.16;100.00;100701.78;4995502;28;20065;-75
2023/01/06 06:59:33;;;;;;;5.93;1.40;;;9.70;99.90;;;8.12;100.00;100705.09;4994602;28;20088;-74
2023/01/06 07:01:59;;;;;;;3.33;1.00;;;9.60;99.90;;;8.14;100.00;100701.13;4993975;28;20398;-75
2023/01/06 07:04:25;;;;;;;2.03;0.88;;;9.70;99.90;;;8.13;100.00;100694.00;4995483;28;20038;-74
2023/01/06 07:06:51;;;;;;;4.13;1.17;;;9.70;99.90;;;8.11;100.00;100698.81;5015483;28;20037;-75
2023/01/06 07:09:16;;;;;;;4.10;0.90;;;9.70;99.90;;;8.09;100.00;100692.75;4994313;28;20057;-74
2023/01/06 07:11:42;;;;;;;4.63;1.00;;;9.60;99.90;;;8.10;100.00;100702.56;4995199;28;20496;-74
2023/01/06 07:14:08;;;;;;;2.45;0.77;;;9.60;99.90;;;8.16;100.00;100696.34;4995329;28;20095;-74
2023/01/06 07:16:33;;;;;;;3.60;0.98;;;9.60;99.90;;;8.30;100.00;100693.72;4996301;28;20057;-75
2023/01/06 07:18:59;;;;;;;3.03;0.90;;;9.80;99.90;;;8.35;100.00;100672.19;4995709;28;20038;-74
2023/01/06 07:21:25;;;;;;;2.80;0.90;;;9.90;99.90;;;8.40;100.00;100677.84;5008747;28;20397;-75
2023/01/06 07:23:51;;;;;;;4.82;1.10;;;9.90;99.90;;;8.45;100.00;100680.81;4995176;28;20026;-74
2023/01/06 07:26:16;;;;;;;4.10;1.20;;;9.90;99.90;;;8.41;100.00;100690.41;4995375;28;20393;-75
2023/01/06 07:28:42;;;;;;;3.55;0.98;;;9.90;99.90;;;8.51;100.00;100683.81;4995139;28;20030;-75
2023/01/06 07:31:08;;;;;;;3.38;1.08;;;10.00;99.90;;;8.59;100.00;100683.63;4994328;28;20163;-76
2023/01/06 07:33:33;;;;;;;3.40;1.08;;;10.10;99.90;;;8.65;100.00;100685.53;4993147;28;20509;-75
2023/01/06 07:35:59;;;;;;;1.83;0.80;;;10.10;99.90;;;8.75;100.00;100688.72;4992732;28;20034;-76
2023/01/06 07:38:25;;;;;;;3.75;1.10;;;10.20;99.90;;;8.80;100.00;100696.25;4992733;28;20045;-75
2023/01/06 07:40:57;;;;;;;5.82;1.00;;;10.30;99.90;;;8.85;100.00;100706.53;4991323;28;20623;-76
2023/01/06 07:43:22;;;;;;;3.20;1.02;;;10.30;99.90;;;8.83;100.00;100695.84;4992524;28;20070;-75
2023/01/06 07:45:48;;;;;;;4.03;1.77;;;10.40;99.90;;;8.86;100.00;100694.59;5008829;28;20422;-76
2023/01/06 07:48:15;;;;;;;4.88;0.90;;;10.40;99.90;;;8.84;100.00;100699.41;4994862;28;20041;-75
2023/01/06 07:50:41;;;;;;;2.53;0.82;;;10.40;99.90;;;8.83;100.00;100698.56;4994282;28;20174;-76
2023/01/06 07:53:08;;;;;;;4.97;1.35;;;10.40;99.90;;;8.84;100.00;100693.97;4995304;28;20137;-76
2023/01/06 07:55:34;;;;;;;2.13;1.10;;;10.40;99.90;;;8.86;100.00;100705.50;4997904;28;20073;-76
2023/01/06 07:58:04;;;;;;;3.45;0.80;;;10.30;99.90;;;8.85;100.00;100701.09;4997085;28;20048;-76
2023/01/06 08:00:30;;;;;;;4.95;1.00;;;10.30;99.90;;;8.84;100.00;100693.97;5010623;28;20033;-76
2023/01/06 08:02:56;;;;;;;2.65;0.90;;;10.40;99.90;;;8.77;100.00;100689.34;5005499;28;20595;-75
2023/01/06 08:05:21;;;;;;;5.50;1.50;;;10.30;99.90;;;8.84;100.00;100683.91;4997362;28;20044;-76
2023/01/06 08:07:47;;;;;;;8.48;1.80;;;10.40;99.90;;;8.84;100.00;100683.09;4998376;28;20084;-76
2023/01/06 08:10:13;;;;;;;5.07;1.20;;;10.40;99.90;;;8.83;100.00;100682.25;4994802;28;20410;-77
2023/01/06 08:12:39;;;;;;;5.10;1.70;;;10.30;99.90;;;8.85;100.00;100695.66;4993984;28;20380;-75
2023/01/06 08:15:05;;;;;;;4.07;0.93;;;10.30;99.90;;;8.76;100.00;100692.28;4994489;28;20030;-76
2023/01/06 08:17:31;;;;;;;3.85;1.20;;;10.30;99.90;;;8.78;100.00;100690.19;4992798;28;20093;-76
2023/01/06 08:19:57;;;;;;;3.92;1.20;;;10.30;99.90;;;8.86;100.00;100695.44;4993212;28;20033;-76
2023/01/06 08:22:23;;;;;;;1.40;0.60;;;10.40;99.90;;;8.86;100.00;100697.31;4993911;28;20046;-75
2023/01/06 08:24:49;;;;;;;3.28;0.80;;;10.40;99.90;;;8.88;100.00;100711.56;4994899;28;20031;-76
2023/01/06 08:27:15;;;;;;;3.08;0.88;;;10.40;99.90;;;8.98;100.00;100701.13;4993217;28;20589;-76
2023/01/06 08:29:41;;;;;;;2.85;0.82;;;10.50;99.90;;;9.03;100.00;100685.03;4993999;28;20027;-75
2023/01/06 08:32:06;;;;;;;3.70;0.90;;;10.50;99.90;;;9.05;100.00;100682.94;4993970;28;20038;-76
2023/01/06 08:34:32;;;;;;;4.28;1.27;;;10.50;99.90;;;9.10;100.00;100682.31;4993627;28;20042;-76
2023/01/06 08:36:58;;;;;;;2.10;0.70;;;10.60;99.90;;;9.15;100.00;100695.31;4993345;28;20034;-76
2023/01/06 08:39:23;;;;;;;3.15;1.02;;;10.60;99.90;;;9.15;100.00;100696.16;4991150;28;20093;-77
2023/01/06 08:41:50;;;;;;;2.47;0.88;;;10.60;99.90;;;9.19;100.00;100688.41;4994721;28;20215;-77
2023/01/06 08:44:17;;;;;;;4.88;1.35;;;10.70;99.90;;;9.22;100.00;100690.72;5002341;28;20057;-77
2023/01/06 08:46:43;;;;;;;3.25;0.90;;;10.70;99.90;;;9.30;100.00;100687.81;4991939;28;20046;-76
2023/01/06 08:49:09;;;;;;;4.30;0.93;;;10.80;99.90;;;9.28;100.00;100689.06;4991846;28;20088;-77
2023/01/06 08:51:34;;;;;;;4.40;1.00;;;10.80;99.90;;;9.31;100.00;100694.94;4991871;28;20030;-77
2023/01/06 08:54:00;;;;;;;2.78;0.80;;;10.80;99.90;;;9.40;100.00;100686.56;4992889;28;20057;-77
2023/01/06 08:56:30;;;;;;;2.15;0.65;;;10.90;99.90;;;9.41;100.00;100699.94;5006496;28;20038;-77
2023/01/06 08:59:02;;;;;;;3.08;0.90;;;10.90;99.90;;;9.40;100.00;100690.09;4988860;28;20109;-76
2023/01/06 09:01:32;;;;;;;2.80;0.98;;;10.90;99.90;;;9.39;100.00;100695.78;4996881;28;20112;-76
2023/01/06 09:04:01;;;;;;;4.15;1.00;;;10.90;99.90;;;9.45;100.00;100697.66;5004800;28;20035;-76
2023/01/06 09:06:28;;;;;;;2.95;0.90;;;10.90;99.90;;;9.52;100.00;100682.16;5011286;28;20141;-77
2023/01/06 09:08:56;;;;;;;1.95;0.80;;;11.00;99.90;;;9.66;100.00;100684.88;5004275;28;20069;-77
2023/01/06 09:11:22;;;;;;;2.63;0.90;;;11.10;99.90;;;9.71;100.00;100694.13;4997410;28;20042;-77
2023/01/06 09:13:50;;;;;;;5.30;0.90;;;11.20;99.90;;;9.72;100.00;100684.03;4993526;28;20390;-77
2023/01/06 09:16:16;;;;;;;3.35;0.85;;;11.20;99.90;;;9.82;100.00;100687.19;4994059;28;20030;-77
2023/01/06 09:18:47;;;;;;;3.83;0.95;;;11.30;99.90;;;9.77;100.00;100686.97;4992760;28;20052;-77
2023/01/06 09:21:13;;;;;;;3.15;0.60;;;11.20;99.90;;;9.70;100.00;100722.41;4992824;28;20030;-78
2023/01/06 09:23:39;;;;;;;3.47;0.90;;;11.20;99.90;;;9.75;100.00;100702.69;5011999;28;20048;-77
2023/01/06 09:26:05;;;;;;;2.67;0.80;;;11.20;99.90;;;9.66;100.00;100687.59;5007499;28;20026;-78
2023/01/06 09:28:31;;;;;;;4.80;1.02;;;11.20;99.90;;;9.50;100.00;100692.41;5006717;28;20128;-77
2023/01/06 09:30:57;;;;;;;5.53;0.82;;;11.00;99.90;;;9.46;100.00;100702.06;5004978;28;20080;-77
2023/01/06 09:33:22;;;;;;;2.05;0.70;;;10.90;99.90;;;9.45;100.00;100697.66;4994158;28;20141;-76
2023/01/06 09:35:48;;;;;;;3.03;0.90;;;10.90;99.90;;;9.46;100.00;100697.47;4995511;28;20479;-77
2023/01/06 09:38:16;;;;;;;4.40;0.80;;;10.90;99.90;;;9.49;100.00;100716.09;5005221;28;20046;-77
2023/01/06 09:41:42;;;;;;;1.73;0.60;;;11.00;99.90;;;9.48;100.00;100722.59;5009335;28;20041;-78
2023/01/06 09:44:13;;;;;;;3.78;0.63;;;11.00;99.90;;;9.38;100.00;100713.97;4993307;28;20050;-77
2023/01/06 09:46:44;;;;;;;2.20;0.60;;;10.90;99.90;;;9.17;100.00;100713.13;4997055;28;20409;-78
2023/01/06 09:49:50;;;;;;;1.75;0.70;;;10.70;99.90;;;8.97;100.00;100709.50;5009594;28;20034;-76
2023/01/06 09:52:33;;;;;;;1.27;0.70;;;10.50;99.90;;;9.00;100.00;100709.91;5000420;28;20084;-78
2023/01/06 09:55:13;;;;;;;2.10;0.90;;;10.50;99.90;;;8.99;100.00;100705.50;4996899;28;20049;-76
2023/01/06 09:57:50;;;;;;;2.85;0.93;;;10.50;99.90;;;9.02;100.00;100696.97;4997019;28;20482;-77
2023/01/06 10:00:47;;;;;;;1.30;0.80;;;10.50;99.90;;;9.11;100.00;100691.31;4996951;28;20049;-77
2023/01/06 10:03:20;;;;;;;3.60;0.95;;;10.60;99.90;;;9.20;100.00;100690.94;4996654;28;20053;-77
2023/01/06 10:06:04;;;;;;;2.58;0.70;;;10.70;99.90;;;9.22;100.00;100701.59;5008766;28;20025;-78
2023/01/06 10:08:37;;;;;;;1.73;0.73;;;10.70;99.90;;;9.21;100.00;100692.59;5013425;28;20058;-77
2023/01/06 10:11:44;;;;;;;2.22;0.70;;;10.70;99.90;;;9.26;100.00;100683.78;5012908;28;20037;-77
2023/01/06 10:14:37;;;;;;;2.30;0.80;;;10.70;99.90;;;9.31;100.00;100704.97;5008885;28;20548;-77
2023/01/06 10:17:22;;;;;;;1.88;0.70;;;10.80;99.90;;;9.31;100.00;100700.38;5011851;28;20033;-77
2023/01/06 10:20:38;;;;;;;2.97;0.90;;;10.80;99.90;;;9.27;100.00;100692.81;5002699;28;20520;-77
2023/01/06 10:23:30;;;;;;;4.47;0.80;;;10.80;99.90;;;9.28;100.00;100705.38;5008737;28;20465;-77
2023/01/06 10:26:15;;;;;;;2.40;0.90;;;10.70;99.90;;;9.23;100.00;100692.38;5007036;28;20062;-78
2023/01/06 10:28:53;;;;;;;2.55;0.90;;;10.70;99.90;;;9.24;100.00;100704.13;5006674;28;20034;-77
2023/01/06 10:31:31;;;;;;;1.85;0.80;;;10.70;99.90;;;9.19;100.00;100702.00;5009969;28;20044;-77
2023/01/06 10:33:58;;;;;;;;;;;10.70;99.90;;;9.16;100.00;100718.75;5025495;28;20101;-77
2023/01/06 10:36:44;;;;;;;3.40;0.80;;;10.70;99.90;;;9.20;100.00;100715.44;4998782;28;19929;-77